Time;durP1;ratioP1;P1;durP2;ratioP2;P2;SDS_P1;SDS_P2;PMS_P1;PMS_P2;Temp;Humidity;BMP_temperature;BMP_pressure;BME280_temperature;BME280_humidity;BME280_pressure;Samples;Min_cycle;Max_cycle;Signal;HPM_P1;HPM_P2
2022/12/24 00:01:31;;;;;;;12.15;2.75;;;;;;;;;;4981215;28;95800;-62
2022/12/24 00:03:57;;;;;;;13.30;2.60;;;;;;;;;;4981297;28;92598;-62
2022/12/24 00:06:24;;;;;;;11.75;2.67;;;;;;;;;;4987522;28;92147;-61
2022/12/24 00:08:50;;;;;;;13.27;2.53;;;;;;;;;;4974050;28;92262;-61
2022/12/24 00:11:17;;;;;;;13.02;2.88;;;;;;;;;;4987439;28;93632;-61
2022/12/24 00:13:43;;;;;;;12.13;2.42;;;;;;;;;;4987953;28;92025;-62
2022/12/24 00:16:10;;;;;;;13.13;2.70;;;;;;;;;;4988522;28;93027;-61
2022/12/24 00:18:36;;;;;;;11.35;2.88;;;;;;;;;;4987684;28;92531;-61
2022/12/24 00:21:10;;;;;;;14.45;3.10;;;;;;;;;;4989453;28;92119;-63
2022/12/24 00:23:36;;;;;;;11.88;2.45;;;;;;;;;;4986028;28;94937;-63
2022/12/24 00:26:03;;;;;;;13.95;2.53;;;;;;;;;;4987737;28;92249;-63
2022/12/24 00:28:29;;;;;;;14.15;2.70;;;;;;;;;;4987859;28;92295;-63
2022/12/24 00:30:56;;;;;;;13.27;2.80;;;;;;;;;;4987392;28;93522;-63
2022/12/24 00:33:22;;;;;;;13.93;3.10;;;;;;;;;;4988124;28;92350;-62
2022/12/24 00:35:51;;;;;;;11.07;2.50;;;;;;;;;;4985053;28;92829;-62
2022/12/24 00:38:18;;;;;;;12.20;2.50;;;;;;;;;;4987526;28;93484;-63
2022/12/24 00:40:44;;;;;;;13.20;2.80;;;;;;;;;;4988282;28;91385;-63
2022/12/24 00:43:10;;;;;;;14.10;2.78;;;;;;;;;;4990861;28;92285;-63
2022/12/24 00:45:37;;;;;;;14.85;3.00;;;;;;;;;;4987228;28;92373;-63
2022/12/24 00:48:03;;;;;;;15.65;2.63;;;;;;;;;;4986039;28;94747;-63
2022/12/24 00:50:29;;;;;;;13.95;2.67;;;;;;;;;;4995435;28;92559;-63
2022/12/24 00:52:56;;;;;;;11.50;2.50;;;;;;;;;;4987518;28;92383;-63
2022/12/24 00:55:22;;;;;;;13.75;2.53;;;;;;;;;;4987251;28;92575;-63
2022/12/24 00:57:49;;;;;;;16.30;2.65;;;;;;;;;;4987696;28;92643;-63
2022/12/24 01:00:16;;;;;;;10.68;2.67;;;;;;;;;;4987031;28;92582;-63
2022/12/24 01:02:43;;;;;;;11.30;2.30;;;;;;;;;;4990529;28;93215;-63
2022/12/24 01:05:10;;;;;;;11.48;2.60;;;;;;;;;;4987815;28;91813;-63
2022/12/24 01:07:38;;;;;;;16.42;3.00;;;;;;;;;;4986828;28;92143;-62
2022/12/24 01:10:05;;;;;;;12.38;2.30;;;;;;;;;;4985026;28;93490;-63
2022/12/24 01:12:31;;;;;;;14.93;2.50;;;;;;;;;;4985503;28;94895;-64
2022/12/24 01:14:57;;;;;;;12.10;2.55;;;;;;;;;;4986671;28;95194;-63
2022/12/24 01:17:24;;;;;;;14.15;2.80;;;;;;;;;;4967150;28;92647;-63
2022/12/24 01:19:50;;;;;;;14.10;2.50;;;;;;;;;;4981004;28;92049;-63
2022/12/24 01:22:16;;;;;;;15.18;2.60;;;;;;;;;;4983309;28;92290;-62
2022/12/24 01:24:43;;;;;;;12.75;2.65;;;;;;;;;;4986071;28;92791;-62
2022/12/24 01:27:09;;;;;;;13.70;2.60;;;;;;;;;;4983607;28;92318;-63
2022/12/24 01:29:36;;;;;;;17.45;2.92;;;;;;;;;;4983703;28;91911;-62
2022/12/24 01:32:02;;;;;;;15.20;2.88;;;;;;;;;;4983635;28;92548;-62
2022/12/24 01:34:29;;;;;;;12.80;2.78;;;;;;;;;;4981001;28;92400;-63
2022/12/24 01:36:55;;;;;;;14.13;3.03;;;;;;;;;;4980782;28;97762;-63
2022/12/24 01:39:22;;;;;;;15.80;2.78;;;;;;;;;;4983171;28;92328;-62
2022/12/24 01:44:34;;;;;;;17.52;3.08;;;;;;;;;;4983134;28;92584;-63
2022/12/24 01:47:19;;;;;;;16.98;3.00;;;;;;;;;;4986112;28;92127;-63
2022/12/24 01:49:49;;;;;;;19.13;2.80;;;;;;;;;;4982481;28;93560;-63
2022/12/24 01:52:18;;;;;;;15.00;2.92;;;;;;;;;;4983040;28;91978;-63
2022/12/24 01:54:52;;;;;;;12.80;2.90;;;;;;;;;;4983604;28;92796;-63
2022/12/24 01:57:21;;;;;;;17.45;3.08;;;;;;;;;;4982762;28;93370;-66
2022/12/24 01:59:49;;;;;;;19.10;3.67;;;;;;;;;;4982601;28;92507;-65
2022/12/24 02:02:16;;;;;;;21.45;3.55;;;;;;;;;;4981351;28;94776;-65
2022/12/24 02:04:48;;;;;;;16.45;3.42;;;;;;;;;;4982303;28;93590;-65
2022/12/24 02:07:14;;;;;;;20.20;3.90;;;;;;;;;;4983030;28;92049;-65
2022/12/24 02:09:41;;;;;;;21.15;3.80;;;;;;;;;;4982582;28;92243;-65
2022/12/24 02:12:07;;;;;;;22.77;3.67;;;;;;;;;;4976607;28;92739;-65
2022/12/24 02:14:34;;;;;;;20.90;3.90;;;;;;;;;;4962426;28;92551;-65
2022/12/24 02:17:07;;;;;;;21.85;3.50;;;;;;;;;;4975791;28;92613;-65
2022/12/24 02:19:45;;;;;;;18.48;3.03;;;;;;;;;;4983352;28;91625;-65
2022/12/24 02:22:17;;;;;;;18.35;3.55;;;;;;;;;;4983029;28;92467;-65
2022/12/24 02:25:01;;;;;;;14.95;2.80;;;;;;;;;;4982921;28;93429;-65
2022/12/24 02:27:46;;;;;;;20.77;3.50;;;;;;;;;;4981282;28;94925;-64
2022/12/24 02:30:14;;;;;;;20.50;3.47;;;;;;;;;;4981243;28;95952;-64
2022/12/24 02:32:40;;;;;;;;;;;;;;;;;;4985857;28;92641;-64
2022/12/24 02:35:35;;;;;;;18.75;3.28;;;;;;;;;;4983075;28;122530;-64
2022/12/24 02:38:25;;;;;;;19.35;3.75;;;;;;;;;;4960369;28;92681;-64
2022/12/24 02:40:55;;;;;;;19.10;3.53;;;;;;;;;;4977355;28;92418;-64
2022/12/24 02:43:23;;;;;;;21.27;3.03;;;;;;;;;;4969429;28;92420;-64
2022/12/24 02:46:00;;;;;;;23.60;4.05;;;;;;;;;;4983212;28;92615;-64
2022/12/24 02:48:28;;;;;;;20.60;3.40;;;;;;;;;;4969374;28;92310;-65
2022/12/24 02:51:01;;;;;;;18.20;3.42;;;;;;;;;;4990061;28;92397;-65
2022/12/24 02:53:27;;;;;;;18.25;3.33;;;;;;;;;;4980797;28;95016;-64
2022/12/24 02:56:26;;;;;;;17.30;2.90;;;;;;;;;;4985506;28;92181;-64
2022/12/24 02:59:08;;;;;;;14.13;3.00;;;;;;;;;;4969049;28;92594;-64
2022/12/24 03:01:49;;;;;;;17.60;3.10;;;;;;;;;;4978886;28;91923;-64
2022/12/24 03:04:15;;;;;;;18.08;3.13;;;;;;;;;;4982192;28;92105;-65
2022/12/24 03:07:03;;;;;;;17.20;2.78;;;;;;;;;;4982244;28;92784;-64
2022/12/24 03:09:37;;;;;;;21.35;3.45;;;;;;;;;;4981937;28;92440;-64
2022/12/24 03:12:09;;;;;;;21.70;3.20;;;;;;;;;;4982650;28;93476;-65
2022/12/24 03:14:37;;;;;;;17.88;3.40;;;;;;;;;;4980688;28;93223;-64
2022/12/24 03:17:03;;;;;;;;;;;;;;;;;;4985720;28;92162;-64
2022/12/24 03:19:30;;;;;;;13.95;2.70;;;;;;;;;;4979424;28;123759;-64
2022/12/24 03:21:58;;;;;;;15.23;2.88;;;;;;;;;;4982311;28;92468;-65
2022/12/24 03:24:24;;;;;;;16.85;3.08;;;;;;;;;;4981965;28;93690;-65
2022/12/24 03:26:51;;;;;;;18.02;3.50;;;;;;;;;;4981625;28;93759;-65
2022/12/24 03:29:18;;;;;;;16.63;2.60;;;;;;;;;;4981732;28;92341;-65
2022/12/24 03:31:48;;;;;;;14.70;2.70;;;;;;;;;;4982242;28;91964;-65
2022/12/24 03:34:15;;;;;;;16.73;3.33;;;;;;;;;;4981500;28;93148;-64
2022/12/24 03:36:42;;;;;;;21.05;3.60;;;;;;;;;;4982543;28;91323;-65
2022/12/24 03:39:08;;;;;;;16.20;2.70;;;;;;;;;;4984125;28;91979;-65
2022/12/24 03:41:35;;;;;;;17.13;2.85;;;;;;;;;;4981891;28;93585;-65
2022/12/24 03:44:02;;;;;;;18.52;3.40;;;;;;;;;;4980218;28;94505;-65
2022/12/24 03:46:28;;;;;;;16.85;3.15;;;;;;;;;;4981632;28;92564;-65
2022/12/24 03:48:55;;;;;;;21.55;3.63;;;;;;;;;;4985626;28;92159;-65
2022/12/24 03:51:23;;;;;;;13.82;3.05;;;;;;;;;;4985287;28;92321;-65
2022/12/24 03:53:53;;;;;;;17.42;3.25;;;;;;;;;;4981587;28;92655;-65
2022/12/24 03:56:20;;;;;;;17.83;3.13;;;;;;;;;;4981369;28;92126;-64
2022/12/24 03:58:47;;;;;;;18.50;3.28;;;;;;;;;;4982087;28;92325;-64
2022/12/24 04:01:13;;;;;;;23.15;3.60;;;;;;;;;;4985082;28;92691;-64
2022/12/24 04:03:40;;;;;;;19.90;3.38;;;;;;;;;;4982094;28;92410;-64
2022/12/24 04:06:07;;;;;;;14.35;2.95;;;;;;;;;;4981537;28;93321;-64
2022/12/24 04:08:34;;;;;;;14.25;2.22;;;;;;;;;;4979782;28;94827;-64
2022/12/24 04:11:00;;;;;;;23.77;3.50;;;;;;;;;;4981678;28;94709;-65
2022/12/24 04:13:34;;;;;;;15.10;2.88;;;;;;;;;;4981671;28;92459;-64
2022/12/24 04:16:05;;;;;;;23.63;3.45;;;;;;;;;;4981402;28;92135;-64
2022/12/24 04:18:31;;;;;;;16.75;2.92;;;;;;;;;;4981407;28;93278;-64
2022/12/24 04:20:58;;;;;;;20.00;3.30;;;;;;;;;;4980866;28;92777;-65
2022/12/24 04:23:24;;;;;;;23.58;3.70;;;;;;;;;;4984425;28;92274;-64
2022/12/24 04:25:50;;;;;;;18.17;3.53;;;;;;;;;;4976752;28;93116;-64
2022/12/24 04:28:17;;;;;;;21.38;3.60;;;;;;;;;;4981488;28;92526;-64
2022/12/24 04:30:43;;;;;;;20.50;3.42;;;;;;;;;;4980859;28;93345;-64
2022/12/24 04:33:09;;;;;;;14.98;2.90;;;;;;;;;;4979988;28;95150;-64
2022/12/24 04:35:40;;;;;;;21.23;3.17;;;;;;;;;;4978444;28;92064;-64
2022/12/24 04:38:09;;;;;;;21.92;3.50;;;;;;;;;;4981286;28;92314;-64
2022/12/24 04:40:35;;;;;;;19.15;3.25;;;;;;;;;;4980685;28;93336;-65
2022/12/24 04:43:02;;;;;;;18.58;3.05;;;;;;;;;;4981294;28;92418;-65
2022/12/24 04:45:28;;;;;;;18.67;3.58;;;;;;;;;;4983937;28;92584;-64
2022/12/24 04:47:55;;;;;;;20.20;3.30;;;;;;;;;;4981556;28;92025;-64
2022/12/24 04:50:21;;;;;;;18.10;3.20;;;;;;;;;;4986458;28;91663;-65
2022/12/24 04:52:47;;;;;;;20.42;3.35;;;;;;;;;;4982802;28;92373;-64
2022/12/24 04:55:14;;;;;;;14.70;3.00;;;;;;;;;;4984616;28;92549;-64
2022/12/24 04:57:40;;;;;;;17.52;2.88;;;;;;;;;;4983026;28;94690;-64
2022/12/24 05:00:07;;;;;;;13.77;2.65;;;;;;;;;;4984051;28;92863;-64
2022/12/24 05:02:33;;;;;;;17.38;3.55;;;;;;;;;;4977669;28;91990;-64
2022/12/24 05:05:00;;;;;;;16.13;2.88;;;;;;;;;;4984265;28;92376;-64
2022/12/24 05:07:26;;;;;;;14.38;2.95;;;;;;;;;;4986963;28;93836;-64
2022/12/24 05:09:53;;;;;;;16.00;2.65;;;;;;;;;;4983993;28;92511;-64
2022/12/24 05:12:22;;;;;;;17.55;3.33;;;;;;;;;;4984012;28;93182;-64
2022/12/24 05:14:48;;;;;;;15.85;3.13;;;;;;;;;;4984335;28;91347;-64
2022/12/24 05:17:15;;;;;;;17.15;2.75;;;;;;;;;;4982897;28;92454;-64
2022/12/24 05:19:41;;;;;;;16.00;2.75;;;;;;;;;;4983365;28;92492;-65
2022/12/24 05:27:38;;;;;;;17.10;2.83;;;;;;;;;;4986941;28;92610;-64
2022/12/24 05:30:05;;;;;;;16.13;3.10;;;;;;;;;;4983972;28;92211;-65
2022/12/24 05:32:31;;;;;;;18.50;3.10;;;;;;;;;;4983944;28;92984;-65
2022/12/24 05:34:57;;;;;;;17.95;3.15;;;;;;;;;;4973931;28;92133;-65
2022/12/24 05:37:24;;;;;;;16.40;3.17;;;;;;;;;;4979854;28;93593;-64
2022/12/24 05:39:50;;;;;;;18.95;2.70;;;;;;;;;;4983638;28;92206;-64
2022/12/24 05:42:16;;;;;;;19.55;2.63;;;;;;;;;;4983840;28;92444;-64
2022/12/24 05:44:43;;;;;;;22.10;3.10;;;;;;;;;;4983423;28;92453;-64
2022/12/24 05:47:09;;;;;;;18.45;2.50;;;;;;;;;;4981919;28;95134;-65
2022/12/24 05:49:36;;;;;;;17.63;3.13;;;;;;;;;;4991905;28;92489;-64
2022/12/24 05:52:03;;;;;;;17.33;2.33;;;;;;;;;;4983154;28;93723;-64
2022/12/24 05:54:29;;;;;;;23.80;3.55;;;;;;;;;;4983464;28;92080;-64
2022/12/24 05:56:55;;;;;;;21.17;3.17;;;;;;;;;;4983309;28;92346;-64
2022/12/24 05:59:22;;;;;;;18.77;3.85;;;;;;;;;;4982940;28;92232;-64
2022/12/24 06:01:48;;;;;;;17.98;3.35;;;;;;;;;;4982761;28;92901;-64
2022/12/24 06:04:15;;;;;;;17.58;3.17;;;;;;;;;;4983062;28;92363;-64
2022/12/24 06:06:41;;;;;;;14.25;2.67;;;;;;;;;;4982789;28;93551;-64
2022/12/24 06:09:08;;;;;;;17.23;3.38;;;;;;;;;;4982613;28;92226;-65
2022/12/24 06:11:34;;;;;;;21.05;3.85;;;;;;;;;;4998732;28;94720;-64
2022/12/24 06:14:01;;;;;;;20.58;3.45;;;;;;;;;;4983363;28;92651;-64
2022/12/24 06:16:27;;;;;;;20.00;2.92;;;;;;;;;;4982995;28;93539;-64
2022/12/24 06:18:54;;;;;;;21.08;3.95;;;;;;;;;;4982773;28;92671;-64
2022/12/24 06:21:20;;;;;;;16.58;3.40;;;;;;;;;;4982772;28;92459;-64
2022/12/24 06:23:46;;;;;;;19.38;3.65;;;;;;;;;;4968998;28;92623;-64
2022/12/24 06:26:15;;;;;;;19.67;3.47;;;;;;;;;;4982343;28;93735;-64
2022/12/24 06:28:41;;;;;;;16.95;3.05;;;;;;;;;;4983377;28;91928;-64
2022/12/24 06:31:10;;;;;;;19.50;3.35;;;;;;;;;;4982766;28;92100;-64
2022/12/24 06:33:37;;;;;;;20.08;3.55;;;;;;;;;;4985514;28;92568;-64
2022/12/24 06:36:07;;;;;;;27.30;3.95;;;;;;;;;;4967699;28;94457;-63
2022/12/24 06:38:42;;;;;;;21.50;3.45;;;;;;;;;;4982284;28;92095;-64
2022/12/24 06:41:08;;;;;;;23.20;3.92;;;;;;;;;;4982669;28;92066;-63
2022/12/24 06:43:35;;;;;;;20.45;3.50;;;;;;;;;;4982521;28;92633;-64
2022/12/24 06:46:01;;;;;;;18.63;3.15;;;;;;;;;;4981885;28;92896;-63
2022/12/24 06:48:28;;;;;;;21.80;3.60;;;;;;;;;;4983268;28;92561;-64
2022/12/24 06:50:54;;;;;;;28.63;4.30;;;;;;;;;;4986904;28;92349;-64
2022/12/24 06:53:22;;;;;;;28.23;4.10;;;;;;;;;;4982958;28;92408;-64
2022/12/24 06:55:48;;;;;;;23.30;3.65;;;;;;;;;;4985158;28;92063;-64
2022/12/24 06:58:14;;;;;;;23.42;4.32;;;;;;;;;;4982098;28;92673;-63
2022/12/24 07:00:41;;;;;;;23.88;4.13;;;;;;;;;;4980630;28;94521;-64
2022/12/24 07:03:07;;;;;;;23.45;4.60;;;;;;;;;;4982556;28;95025;-64
2022/12/24 07:05:33;;;;;;;22.95;4.03;;;;;;;;;;4982010;28;93253;-64
2022/12/24 07:08:00;;;;;;;24.80;4.13;;;;;;;;;;4982464;28;92245;-64
2022/12/24 07:10:26;;;;;;;21.20;3.60;;;;;;;;;;4981591;28;92417;-63
2022/12/24 07:12:52;;;;;;;23.02;3.83;;;;;;;;;;4981856;28;92963;-64
2022/12/24 07:15:19;;;;;;;23.10;4.50;;;;;;;;;;4981139;28;92326;-64
2022/12/24 07:17:45;;;;;;;22.77;4.10;;;;;;;;;;4985717;28;92168;-64
2022/12/24 07:20:13;;;;;;;23.23;3.58;;;;;;;;;;4982003;28;92173;-64
2022/12/24 07:22:41;;;;;;;24.38;4.05;;;;;;;;;;4982248;28;92479;-64
2022/12/24 07:25:07;;;;;;;21.00;3.35;;;;;;;;;;4980008;28;95155;-64
2022/12/24 07:27:34;;;;;;;23.63;3.90;;;;;;;;;;4981564;28;92036;-64
2022/12/24 07:30:00;;;;;;;18.52;3.78;;;;;;;;;;4981783;28;92627;-64
2022/12/24 07:32:27;;;;;;;18.10;2.70;;;;;;;;;;4981484;28;93871;-64
2022/12/24 07:34:53;;;;;;;14.02;2.67;;;;;;;;;;4972454;28;92080;-64
2022/12/24 07:37:20;;;;;;;14.43;2.45;;;;;;;;;;4980630;28;93365;-64
2022/12/24 07:39:46;;;;;;;16.60;2.70;;;;;;;;;;4981664;28;92051;-63
2022/12/24 07:42:12;;;;;;;10.98;2.22;;;;;;;;;;4982053;28;92235;-64
2022/12/24 07:44:39;;;;;;;15.73;2.50;;;;;;;;;;4981391;28;92769;-64
2022/12/24 07:47:05;;;;;;;15.00;2.97;;;;;;;;;;4981536;28;92073;-65
2022/12/24 07:49:32;;;;;;;15.98;2.67;;;;;;;;;;4983401;28;94358;-63
2022/12/24 07:51:58;;;;;;;13.07;2.70;;;;;;;;;;4981559;28;92666;-63
2022/12/24 07:54:24;;;;;;;15.27;2.60;;;;;;;;;;4981097;28;92040;-64
2022/12/24 07:56:51;;;;;;;12.98;2.50;;;;;;;;;;4981553;28;92245;-64
2022/12/24 07:59:17;;;;;;;14.13;2.58;;;;;;;;;;4984212;28;92688;-64
2022/12/24 08:01:44;;;;;;;13.70;2.53;;;;;;;;;;4981200;28;93685;-64
2022/12/24 08:04:11;;;;;;;13.63;2.60;;;;;;;;;;4981002;28;92260;-64
2022/12/24 08:06:37;;;;;;;12.25;2.60;;;;;;;;;;4981432;28;91278;-64
2022/12/24 08:09:04;;;;;;;11.75;2.22;;;;;;;;;;4980183;28;93626;-64
2022/12/24 08:11:30;;;;;;;12.45;2.38;;;;;;;;;;4980888;28;92602;-64
2022/12/24 08:13:56;;;;;;;10.82;2.20;;;;;;;;;;4979035;28;94643;-64
2022/12/24 08:16:23;;;;;;;11.57;2.20;;;;;;;;;;4981076;28;95170;-64
2022/12/24 08:18:49;;;;;;;11.35;2.30;;;;;;;;;;4980767;28;92779;-64
2022/12/24 08:21:16;;;;;;;11.35;2.20;;;;;;;;;;4984201;28;92470;-64
2022/12/24 08:23:42;;;;;;;13.07;2.28;;;;;;;;;;4980501;28;93580;-64
2022/12/24 08:26:09;;;;;;;11.20;2.40;;;;;;;;;;4982101;28;92257;-64
2022/12/24 08:28:35;;;;;;;11.90;2.30;;;;;;;;;;4984307;28;92719;-64
2022/12/24 08:31:02;;;;;;;12.90;2.13;;;;;;;;;;4984677;28;91804;-64
2022/12/24 08:33:28;;;;;;;13.63;2.30;;;;;;;;;;4996587;28;92483;-63
2022/12/24 08:35:55;;;;;;;12.75;2.70;;;;;;;;;;4973186;28;92338;-64
2022/12/24 08:38:22;;;;;;;10.48;2.30;;;;;;;;;;4982779;28;94993;-63
2022/12/24 08:40:48;;;;;;;9.45;1.95;;;;;;;;;;4983923;28;92317;-62
2022/12/24 08:43:16;;;;;;;10.80;2.33;;;;;;;;;;4987396;28;92414;-66
2022/12/24 08:45:42;;;;;;;9.68;2.10;;;;;;;;;;4983980;28;93085;-62
2022/12/24 08:48:09;;;;;;;15.02;2.58;;;;;;;;;;4984344;28;92166;-63
2022/12/24 08:50:37;;;;;;;12.07;1.98;;;;;;;;;;4987543;28;92549;-63
2022/12/24 08:53:03;;;;;;;11.18;2.30;;;;;;;;;;4984116;28;92248;-63
2022/12/24 08:55:30;;;;;;;11.88;2.42;;;;;;;;;;4984518;28;93449;-63
2022/12/24 08:57:56;;;;;;;9.00;2.15;;;;;;;;;;4984010;28;92499;-63
2022/12/24 09:00:23;;;;;;;12.45;2.30;;;;;;;;;;4983579;28;92385;-63
2022/12/24 09:02:49;;;;;;;10.30;1.83;;;;;;;;;;4982662;28;94717;-63
2022/12/24 09:05:16;;;;;;;11.90;2.33;;;;;;;;;;4986668;28;92555;-63
2022/12/24 09:07:43;;;;;;;10.30;2.03;;;;;;;;;;4983941;28;92343;-64
2022/12/24 09:10:10;;;;;;;12.23;2.10;;;;;;;;;;4982143;28;94061;-63
2022/12/24 09:12:36;;;;;;;10.07;2.00;;;;;;;;;;4983797;28;92235;-63
2022/12/24 09:15:04;;;;;;;9.77;2.03;;;;;;;;;;4983319;28;93444;-63
2022/12/24 09:17:31;;;;;;;10.90;2.40;;;;;;;;;;4983665;28;93270;-63
2022/12/24 09:19:57;;;;;;;10.82;2.08;;;;;;;;;;4984151;28;91911;-63
2022/12/24 09:22:23;;;;;;;8.02;1.95;;;;;;;;;;4983649;28;92153;-63
2022/12/24 09:24:52;;;;;;;10.45;1.98;;;;;;;;;;4983437;28;93057;-64
2022/12/24 09:27:18;;;;;;;9.75;2.30;;;;;;;;;;4984608;28;94699;-63
2022/12/24 09:29:45;;;;;;;14.30;2.35;;;;;;;;;;4983215;28;92518;-63
2022/12/24 09:32:11;;;;;;;10.88;2.20;;;;;;;;;;4981768;28;92114;-63
2022/12/24 09:34:39;;;;;;;12.48;2.30;;;;;;;;;;4976098;28;93298;-63
2022/12/24 09:37:05;;;;;;;9.10;2.25;;;;;;;;;;4977007;28;92543;-63
2022/12/24 09:39:31;;;;;;;9.63;2.00;;;;;;;;;;4982908;28;92353;-63
2022/12/24 09:42:33;;;;;;;9.70;2.47;;;;;;;;;;4982814;28;92424;-64
2022/12/24 09:45:18;;;;;;;12.65;2.47;;;;;;;;;;4941953;28;91384;-63
2022/12/24 09:47:49;;;;;;;10.55;2.30;;;;;;;;;;4981550;28;92532;-63
2022/12/24 09:50:35;;;;;;;10.23;2.15;;;;;;;;;;4987734;28;93544;-63
2022/12/24 09:53:03;;;;;;;10.02;2.03;;;;;;;;;;4981813;28;94672;-63
2022/12/24 09:55:34;;;;;;;10.30;2.00;;;;;;;;;;4982643;28;94981;-63
2022/12/24 09:58:03;;;;;;;10.43;2.63;;;;;;;;;;4981587;28;92997;-65
2022/12/24 10:00:31;;;;;;;11.60;2.58;;;;;;;;;;4982586;28;92601;-65
2022/12/24 10:02:58;;;;;;;9.38;2.15;;;;;;;;;;4982726;28;92298;-64
2022/12/24 10:05:57;;;;;;;12.90;2.55;;;;;;;;;;4982153;28;93389;-64
2022/12/24 10:08:26;;;;;;;11.52;2.28;;;;;;;;;;4966837;28;93401;-64
2022/12/24 10:10:54;;;;;;;11.18;2.20;;;;;;;;;;4986095;28;92866;-64
2022/12/24 10:13:20;;;;;;;9.60;2.10;;;;;;;;;;4983190;28;92629;-64
2022/12/24 10:15:46;;;;;;;11.70;2.25;;;;;;;;;;4982233;28;92440;-64
2022/12/24 10:18:20;;;;;;;10.88;2.20;;;;;;;;;;4981061;28;95636;-64
2022/12/24 10:20:50;;;;;;;11.95;2.15;;;;;;;;;;4982564;28;92823;-63
2022/12/24 10:23:19;;;;;;;11.18;2.42;;;;;;;;;;4982958;28;92459;-64
2022/12/24 10:25:58;;;;;;;10.85;2.22;;;;;;;;;;4982247;28;92632;-63
2022/12/24 10:28:30;;;;;;;12.10;2.20;;;;;;;;;;4982307;28;92221;-63
2022/12/24 10:30:58;;;;;;;12.52;2.50;;;;;;;;;;4982896;28;92725;-64
2022/12/24 10:33:30;;;;;;;9.48;2.03;;;;;;;;;;4985554;28;93071;-64
2022/12/24 10:35:57;;;;;;;11.93;2.28;;;;;;;;;;4973544;28;92563;-64
2022/12/24 10:38:24;;;;;;;10.27;2.35;;;;;;;;;;4975902;28;92679;-64
2022/12/24 10:40:52;;;;;;;11.60;2.30;;;;;;;;;;4962169;28;92058;-63
2022/12/24 10:43:20;;;;;;;12.48;2.55;;;;;;;;;;4977000;28;94445;-63
2022/12/24 10:45:48;;;;;;;10.88;2.40;;;;;;;;;;4966689;28;93097;-63
2022/12/24 10:48:20;;;;;;;11.02;2.50;;;;;;;;;;4981790;28;92103;-63
2022/12/24 10:51:12;;;;;;;13.57;2.17;;;;;;;;;;4983090;28;92040;-63
2022/12/24 10:53:47;;;;;;;11.52;2.47;;;;;;;;;;4981816;28;92271;-63
2022/12/24 10:56:14;;;;;;;12.20;2.42;;;;;;;;;;4985805;28;92778;-63
2022/12/24 10:58:52;;;;;;;14.02;2.97;;;;;;;;;;4981397;28;92673;-63
2022/12/24 11:01:19;;;;;;;12.85;3.00;;;;;;;;;;4982527;28;91312;-64
2022/12/24 11:03:58;;;;;;;17.42;3.70;;;;;;;;;;4982051;28;92335;-64
2022/12/24 11:06:24;;;;;;;16.95;3.30;;;;;;;;;;4982253;28;93281;-63
2022/12/24 11:08:50;;;;;;;17.13;3.90;;;;;;;;;;4980048;28;95114;-64
2022/12/24 11:11:19;;;;;;;16.23;3.60;;;;;;;;;;4982026;28;94657;-63
2022/12/24 11:13:52;;;;;;;16.65;4.07;;;;;;;;;;4981728;28;93208;-64
2022/12/24 11:16:19;;;;;;;17.25;4.35;;;;;;;;;;4981993;28;92364;-64
2022/12/24 11:18:52;;;;;;;17.83;4.30;;;;;;;;;;4984456;28;92383;-63
2022/12/24 11:21:20;;;;;;;17.20;4.53;;;;;;;;;;4981753;28;92152;-63
2022/12/24 11:24:08;;;;;;;17.48;4.53;;;;;;;;;;4981537;28;92226;-63
2022/12/24 11:26:34;;;;;;;20.13;4.38;;;;;;;;;;4978539;28;92691;-63
2022/12/24 11:29:03;;;;;;;14.38;3.90;;;;;;;;;;4981610;28;92064;-64
2022/12/24 11:31:31;;;;;;;21.05;4.55;;;;;;;;;;4982006;28;92856;-63
2022/12/24 11:33:58;;;;;;;18.63;4.40;;;;;;;;;;4978157;28;95122;-64
2022/12/24 11:36:26;;;;;;;17.58;4.10;;;;;;;;;;4971046;28;92040;-64
2022/12/24 11:38:54;;;;;;;20.33;4.50;;;;;;;;;;4981808;28;94207;-64
2022/12/24 11:41:20;;;;;;;16.92;4.10;;;;;;;;;;4979975;28;92272;-64
2022/12/24 11:43:48;;;;;;;14.73;4.00;;;;;;;;;;4978201;28;92417;-63
2022/12/24 11:46:36;;;;;;;16.25;3.72;;;;;;;;;;4980523;28;92749;-63
2022/12/24 11:49:23;;;;;;;15.07;3.60;;;;;;;;;;4983040;28;92571;-64
2022/12/24 11:52:02;;;;;;;16.73;3.80;;;;;;;;;;4978763;28;93908;-63
2022/12/24 11:54:33;;;;;;;12.18;3.45;;;;;;;;;;4980940;28;92574;-64
2022/12/24 11:57:00;;;;;;;13.43;3.53;;;;;;;;;;4981166;28;92398;-63
2022/12/24 11:59:26;;;;;;;;;;;;;;;;;;4979618;28;94699;-64
2022/12/24 12:01:55;;;;;;;17.13;3.80;;;;;;;;;;4983702;28;122381;-64
2022/12/24 12:04:29;;;;;;;14.65;3.65;;;;;;;;;;4980731;28;92197;-63
2022/12/24 12:06:59;;;;;;;15.02;3.40;;;;;;;;;;4980632;28;92535;-63
2022/12/24 12:09:27;;;;;;;15.00;4.18;;;;;;;;;;4966448;28;92218;-64
2022/12/24 12:11:57;;;;;;;12.50;3.60;;;;;;;;;;4960930;28;92571;-64
2022/12/24 12:14:29;;;;;;;14.55;3.78;;;;;;;;;;4960630;28;92449;-64
2022/12/24 12:16:59;;;;;;;15.00;3.80;;;;;;;;;;4961461;28;92908;-64
2022/12/24 12:19:31;;;;;;;16.17;4.13;;;;;;;;;;4974433;28;92147;-64
2022/12/24 12:21:59;;;;;;;15.18;3.80;;;;;;;;;;4980172;28;93071;-63
2022/12/24 12:24:28;;;;;;;15.05;3.80;;;;;;;;;;4982227;28;94991;-64
2022/12/24 12:27:18;;;;;;;14.35;3.85;;;;;;;;;;4980435;28;92531;-63
2022/12/24 12:29:45;;;;;;;15.15;3.67;;;;;;;;;;4980061;28;92258;-64
2022/12/24 12:32:19;;;;;;;24.08;4.28;;;;;;;;;;4966148;28;93511;-63
2022/12/24 12:34:54;;;;;;;15.63;3.83;;;;;;;;;;4972945;28;93037;-63
2022/12/24 12:37:24;;;;;;;14.07;3.70;;;;;;;;;;4978959;28;92217;-63
2022/12/24 12:39:51;;;;;;;14.05;3.72;;;;;;;;;;4980005;28;92428;-63
2022/12/24 12:42:27;;;;;;;13.45;3.05;;;;;;;;;;4981109;28;91778;-63
2022/12/24 12:44:53;;;;;;;13.60;3.15;;;;;;;;;;4967789;28;92358;-63
2022/12/24 12:47:44;;;;;;;14.60;3.25;;;;;;;;;;4983157;28;92311;-63
2022/12/24 12:50:49;;;;;;;14.18;3.28;;;;;;;;;;4979509;28;94789;-63
2022/12/24 12:53:28;;;;;;;14.10;3.45;;;;;;;;;;4957757;28;95033;-62
2022/12/24 12:55:54;;;;;;;14.35;3.60;;;;;;;;;;4957439;28;92929;-63
2022/12/24 12:58:31;;;;;;;13.43;3.50;;;;;;;;;;4964159;28;92287;-63
2022/12/24 13:01:01;;;;;;;15.48;3.30;;;;;;;;;;4979860;28;92723;-63
2022/12/24 13:03:40;;;;;;;13.43;3.53;;;;;;;;;;4980572;28;92593;-63
2022/12/24 13:06:18;;;;;;;13.25;3.00;;;;;;;;;;4980926;28;92099;-63
2022/12/24 13:08:44;;;;;;;11.60;3.00;;;;;;;;;;4981096;28;92327;-64
2022/12/24 13:11:23;;;;;;;11.98;3.10;;;;;;;;;;4983784;28;92678;-63
2022/12/24 13:13:55;;;;;;;9.45;2.85;;;;;;;;;;4982980;28;92327;-63
2022/12/24 13:16:21;;;;;;;11.50;3.20;;;;;;;;;;4981964;28;95261;-63
2022/12/24 13:18:48;;;;;;;13.50;3.03;;;;;;;;;;4983510;28;92568;-63
2022/12/24 13:21:15;;;;;;;11.45;3.00;;;;;;;;;;4983699;28;92595;-63
2022/12/24 13:23:42;;;;;;;;;;;;;;;;;;4983645;28;91937;-63
2022/12/24 13:26:10;;;;;;;10.73;2.97;;;;;;;;;;4984681;28;100402;-63
2022/12/24 13:28:37;;;;;;;10.38;2.83;;;;;;;;;;4983296;28;92912;-63
2022/12/24 13:31:10;;;;;;;13.85;2.85;;;;;;;;;;4982841;28;92554;-63
2022/12/24 13:33:36;;;;;;;12.25;3.03;;;;;;;;;;4987121;28;91302;-64
2022/12/24 13:36:06;;;;;;;9.30;2.50;;;;;;;;;;4969673;28;92613;-64
2022/12/24 13:38:43;;;;;;;13.00;3.22;;;;;;;;;;4983307;28;92067;-62
2022/12/24 13:41:28;;;;;;;10.57;2.72;;;;;;;;;;4981744;28;94759;-63
2022/12/24 13:44:11;;;;;;;10.68;3.00;;;;;;;;;;4982870;28;94067;-63
2022/12/24 13:46:56;;;;;;;12.70;3.20;;;;;;;;;;4983654;28;92595;-63
2022/12/24 13:49:29;;;;;;;13.30;2.88;;;;;;;;;;4988300;28;93687;-63
2022/12/24 13:52:04;;;;;;;11.65;2.80;;;;;;;;;;4983138;28;92653;-63
2022/12/24 13:54:31;;;;;;;9.90;2.85;;;;;;;;;;4994099;28;92560;-63
2022/12/24 13:56:58;;;;;;;10.60;2.97;;;;;;;;;;4982971;28;92600;-63
2022/12/24 13:59:36;;;;;;;10.43;2.65;;;;;;;;;;4983522;28;91297;-63
2022/12/24 14:02:04;;;;;;;11.05;2.60;;;;;;;;;;4983168;28;92338;-63
2022/12/24 14:04:33;;;;;;;13.75;3.00;;;;;;;;;;4982374;28;92698;-64
2022/12/24 14:07:01;;;;;;;10.95;2.97;;;;;;;;;;4981103;28;94426;-64
2022/12/24 14:09:28;;;;;;;10.82;2.63;;;;;;;;;;4982267;28;95559;-63
2022/12/24 14:11:57;;;;;;;13.75;3.33;;;;;;;;;;4982596;28;92701;-63
2022/12/24 14:14:44;;;;;;;10.75;2.95;;;;;;;;;;4982855;28;92587;-63
2022/12/24 14:17:19;;;;;;;13.05;3.17;;;;;;;;;;4973663;28;92430;-64
2022/12/24 14:19:56;;;;;;;10.50;2.90;;;;;;;;;;4978255;28;92549;-63
2022/12/24 14:22:31;;;;;;;11.63;2.70;;;;;;;;;;4981862;28;92780;-64
2022/12/24 14:25:03;;;;;;;10.45;2.38;;;;;;;;;;4981353;28;92603;-63
2022/12/24 14:27:42;;;;;;;11.20;3.00;;;;;;;;;;4982206;28;92624;-64
2022/12/24 14:30:22;;;;;;;12.57;2.80;;;;;;;;;;4982178;28;92887;-63
2022/12/24 14:32:49;;;;;;;11.82;2.70;;;;;;;;;;4979926;28;95325;-64
2022/12/24 14:35:17;;;;;;;10.85;2.67;;;;;;;;;;4969982;28;92358;-63
2022/12/24 14:37:43;;;;;;;;;;;;;;;;;;4980958;28;92384;-63
2022/12/24 14:40:15;;;;;;;8.95;2.22;;;;;;;;;;4973766;28;122013;-63
2022/12/24 14:42:53;;;;;;;9.95;2.60;;;;;;;;;;4965562;28;93270;-63
2022/12/24 14:45:36;;;;;;;13.52;2.63;;;;;;;;;;4968275;28;92674;-64
2022/12/24 14:48:20;;;;;;;11.27;2.60;;;;;;;;;;4978848;28;92351;-62
2022/12/24 14:51:06;;;;;;;10.23;2.40;;;;;;;;;;4987651;28;92824;-64
2022/12/24 14:53:48;;;;;;;9.55;2.80;;;;;;;;;;4982156;28;92649;-63